Time;durP1;ratioP1;P1;durP2;ratioP2;P2;SDS_P1;SDS_P2;PMS_P1;PMS_P2;Temp;Humidity;BMP_temperature;BMP_pressure;BME280_temperature;BME280_humidity;BME280_pressure;Samples;Min_cycle;Max_cycle;Signal;HPM_P1;HPM_P2
2021/07/27 00:00:45;;;;;;;22.25;11.57;;;;;;;19.28;87.46;98869.91;1613058;87;21158;-61
2021/07/27 00:03:13;;;;;;;19.35;11.22;;;;;;;19.27;87.66;98868.31;1630908;85;21580;-60
2021/07/27 00:05:42;;;;;;;23.80;12.23;;;;;;;19.24;87.76;98862.94;1643962;84;21118;-60
2021/07/27 00:08:10;;;;;;;23.47;11.45;;;;;;;19.24;87.98;98866.95;1684331;83;21042;-60
2021/07/27 00:10:39;;;;;;;20.00;11.45;;;;;;;19.22;88.20;98862.41;1676140;83;21019;-62
2021/07/27 00:13:07;;;;;;;21.12;11.88;;;;;;;19.21;88.50;98858.14;1676702;83;21117;-61
2021/07/27 00:15:35;;;;;;;19.82;12.00;;;;;;;19.21;88.88;98857.31;1672657;83;21062;-59
2021/07/27 00:18:05;;;;;;;23.52;12.82;;;;;;;19.21;89.20;98855.97;1682362;83;21118;-60
2021/07/27 00:20:33;;;;;;;23.10;12.35;;;;;;;19.25;89.72;98862.41;1686302;83;21065;-59
2021/07/27 00:23:01;;;;;;;21.25;13.13;;;;;;;19.25;90.20;98865.08;1683596;83;21109;-59
2021/07/27 00:25:30;;;;;;;22.32;12.95;;;;;;;19.26;90.80;98866.67;1663745;84;21596;-60
2021/07/27 00:27:58;;;;;;;20.85;11.97;;;;;;;19.25;91.30;98863.74;1670919;84;21054;-59
2021/07/27 00:30:27;;;;;;;26.85;12.88;;;;;;;19.24;91.71;98860.27;1665496;83;21046;-60
2021/07/27 00:32:54;;;;;;;26.02;12.85;;;;;;;19.23;91.92;98861.34;1671863;83;21046;-59
2021/07/27 00:35:24;;;;;;;23.62;12.25;;;;;;;19.24;91.73;98860.80;1675796;83;21145;-60
2021/07/27 00:38:24;;;;;;;24.95;13.45;;;;;;;19.23;91.35;98861.34;1678051;83;21105;-61
2021/07/27 00:40:27;;;;;;;19.25;12.50;;;;;;;19.21;90.90;98867.49;1660127;82;21113;-60
2021/07/27 00:42:59;;;;;;;20.30;12.50;;;;;;;19.21;90.72;98862.15;1674079;83;21066;-60
2021/07/27 00:45:27;;;;;;;21.25;12.05;;;;;;;19.20;90.42;98861.05;1645254;85;21065;-61
2021/07/27 00:47:55;;;;;;;20.75;12.73;;;;;;;19.17;90.22;98861.59;1683324;84;21026;-60
2021/07/27 00:50:23;;;;;;;21.02;12.75;;;;;;;19.15;90.34;98853.02;1628672;86;21133;-62
2021/07/27 00:52:50;;;;;;;25.43;13.00;;;;;;;19.14;90.45;98850.09;1596876;88;21586;-60
2021/07/27 00:55:18;;;;;;;22.05;12.68;;;;;;;19.11;90.67;98852.77;1628942;85;21080;-61
2021/07/27 00:57:46;;;;;;;23.70;12.10;;;;;;;19.08;90.85;98846.59;1628425;86;21086;-60
2021/07/27 01:00:15;;;;;;;21.10;13.62;;;;;;;19.04;91.10;98839.66;1622521;87;21079;-60
2021/07/27 01:02:43;;;;;;;20.77;13.00;;;;;;;19.01;91.38;98845.52;1616435;87;21054;-61
2021/07/27 01:05:11;;;;;;;21.87;12.65;;;;;;;18.99;91.59;98847.66;1622508;87;21135;-60
2021/07/27 01:07:39;;;;;;;22.25;12.95;;;;;;;18.99;92.00;98845.52;1637296;85;21587;-61
2021/07/27 01:10:13;;;;;;;23.80;13.03;;;;;;;18.99;91.96;98840.98;1635431;87;21058;-60
2021/07/27 01:12:40;;;;;;;23.45;14.03;;;;;;;18.98;91.98;98838.55;1617128;86;21127;-62
2021/07/27 01:15:11;;;;;;;23.87;14.13;;;;;;;18.96;92.08;98836.14;1621587;87;21657;-61
2021/07/27 01:17:39;;;;;;;24.10;13.98;;;;;;;18.93;92.06;98839.36;1612303;87;21120;-61
2021/07/27 01:20:18;;;;;;;22.48;13.18;;;;;;;18.94;92.34;98844.16;1619352;87;21068;-59
2021/07/27 01:40:22;;;;;;;24.10;14.28;;;;;;;19.05;92.02;98832.45;1633866;87;21107;-61
2021/07/27 01:42:11;;;;;;;26.60;13.95;;;;;;;19.04;91.84;98825.50;1595369;86;21097;-59
2021/07/27 01:44:46;;;;;;;22.73;13.72;;;;;;;19.00;91.76;98825.22;1625628;87;21787;-60
2021/07/27 01:47:21;;;;;;;22.67;14.45;;;;;;;18.98;91.87;98832.70;1614077;86;21515;-61
2021/07/27 01:49:50;;;;;;;25.75;14.00;;;;;;;18.97;91.86;98824.92;1617190;87;21116;-61
2021/07/27 01:52:23;;;;;;;26.85;14.00;;;;;;;18.96;91.98;98823.33;1643452;86;21926;-60
2021/07/27 01:54:52;;;;;;;27.87;14.53;;;;;;;18.93;92.03;98824.67;1643113;85;21586;-60
2021/07/27 01:57:20;;;;;;;26.40;14.05;;;;;;;18.93;92.06;98831.34;1618970;85;21112;-59
2021/07/27 02:00:00;;;;;;;24.85;14.10;;;;;;;18.93;92.00;98830.01;1619413;87;21024;-60
2021/07/27 02:02:28;;;;;;;23.15;13.40;;;;;;;18.92;91.96;98829.72;1627147;87;21137;-59
2021/07/27 02:04:56;;;;;;;25.50;14.30;;;;;;;18.90;91.86;98826.52;1627448;87;21118;-60
2021/07/27 02:07:24;;;;;;;21.33;14.15;;;;;;;18.89;91.80;98834.80;1622525;87;21144;-60
2021/07/27 02:09:58;;;;;;;22.58;14.53;;;;;;;18.86;91.68;98830.77;1608670;87;21056;-60
2021/07/27 02:12:23;;;;;;;23.57;13.70;;;;;;;18.86;91.70;98840.11;1613281;87;21079;-61
2021/07/27 02:15:07;;;;;;;24.18;13.58;;;;;;;18.86;91.73;98843.31;1610093;87;21091;-59
2021/07/27 02:17:35;;;;;;;23.00;13.70;;;;;;;18.86;91.74;98844.12;1629314;86;21079;-61
2021/07/27 02:20:06;;;;;;;26.00;13.78;;;;;;;18.90;91.88;98841.20;1626158;87;21581;-61
2021/07/27 02:22:35;;;;;;;23.90;14.10;;;;;;;18.93;91.90;98838.55;1638135;86;21130;-60
2021/07/27 02:25:08;;;;;;;21.55;13.60;;;;;;;18.98;91.85;98838.55;1618583;86;21582;-61
2021/07/27 02:27:35;;;;;;;21.05;13.55;;;;;;;19.03;91.71;98835.89;1628004;86;21113;-59
2021/07/27 02:30:04;;;;;;;27.73;14.60;;;;;;;19.06;91.75;98838.86;1614473;86;21059;-58
2021/07/27 02:32:32;;;;;;;23.00;13.10;;;;;;;19.08;92.28;98841.25;1623336;86;21021;-60
2021/07/27 02:34:59;;;;;;;22.07;13.25;;;;;;;19.09;92.52;98832.16;1631914;86;21066;-60
2021/07/27 02:37:31;;;;;;;22.02;13.65;;;;;;;19.08;92.74;98834.04;1645944;85;21165;-60
2021/07/27 02:39:59;;;;;;;22.27;13.65;;;;;;;19.08;92.71;98833.23;1619087;86;21574;-60
2021/07/27 02:42:27;;;;;;;22.13;14.00;;;;;;;19.08;92.39;98838.58;1637502;87;21089;-61
2021/07/27 02:44:54;;;;;;;24.92;13.60;;;;;;;19.07;92.33;98840.98;1641396;85;21077;-60
2021/07/27 02:47:24;;;;;;;22.58;13.88;;;;;;;19.10;92.10;98839.14;1627990;85;21050;-59
2021/07/27 02:49:51;;;;;;;21.42;13.53;;;;;;;19.17;91.69;98841.55;1628081;86;21587;-59
2021/07/27 02:52:19;;;;;;;23.30;12.68;;;;;;;19.24;91.28;98839.42;1634933;85;21137;-60
2021/07/27 02:54:47;;;;;;;21.75;13.10;;;;;;;19.30;90.62;98839.17;1641468;85;21039;-61
2021/07/27 02:57:17;;;;;;;24.23;13.53;;;;;;;19.38;89.86;98829.81;1614610;86;21189;-59
2021/07/27 02:59:45;;;;;;;25.27;13.20;;;;;;;19.45;88.89;98827.70;1625229;85;21538;-62
2021/07/27 03:02:13;;;;;;;21.35;14.10;;;;;;;19.52;87.84;98830.91;1613137;86;21084;-61
2021/07/27 03:04:40;;;;;;;22.17;13.70;;;;;;;19.59;87.09;98819.44;1616601;87;21116;-61
2021/07/27 03:07:09;;;;;;;24.07;13.10;;;;;;;19.67;86.35;98816.79;1607967;86;21584;-60
2021/07/27 03:10:17;;;;;;;24.55;12.63;;;;;;;19.78;85.82;98810.88;1627362;87;21091;-61
2021/07/27 03:12:09;;;;;;;21.45;13.13;;;;;;;19.89;85.38;98803.11;1629763;86;21088;-61
2021/07/27 03:14:36;;;;;;;22.45;13.35;;;;;;;20.02;84.82;98795.89;1668930;84;21023;-60
2021/07/27 03:17:04;;;;;;;23.50;12.63;;;;;;;20.15;83.87;98795.85;1674353;84;21066;-61
2021/07/27 03:19:32;;;;;;;22.80;12.90;;;;;;;20.28;82.81;98806.52;1623130;86;21095;-60
2021/07/27 03:22:00;;;;;;;26.30;13.53;;;;;;;20.41;82.10;98805.42;1616034;87;21138;-60
2021/07/27 03:24:28;;;;;;;22.50;13.50;;;;;;;20.62;81.18;98804.02;1612978;87;21068;-59
2021/07/27 03:26:57;;;;;;;21.93;13.08;;;;;;;20.86;79.81;98808.98;1651909;85;21487;-59
2021/07/27 03:29:27;;;;;;;24.00;13.90;;;;;;;21.10;78.23;98804.30;1639917;85;21098;-61
2021/07/27 03:31:55;;;;;;;24.55;13.83;;;;;;;21.34;76.14;98801.78;1623119;85;21121;-60
2021/07/27 03:34:23;;;;;;;23.05;13.95;;;;;;;21.55;75.17;98802.41;1628971;85;21066;-61
2021/07/27 03:36:51;;;;;;;22.62;12.73;;;;;;;21.78;74.19;98804.90;1615665;87;21591;-61
2021/07/27 03:39:18;;;;;;;22.87;13.05;;;;;;;22.10;73.33;98801.14;1677623;83;21105;-61
2021/07/27 03:41:46;;;;;;;22.52;12.65;;;;;;;22.44;71.96;98809.64;1671113;84;21061;-61
2021/07/27 03:44:15;;;;;;;21.42;12.40;;;;;;;22.72;70.76;98798.55;1692912;84;21023;-60
2021/07/27 03:46:50;;;;;;;23.18;12.55;;;;;;;22.98;68.99;98805.75;1675901;84;21055;-59
2021/07/27 03:49:17;;;;;;;22.30;11.85;;;;;;;23.21;67.79;98802.19;1599702;87;21075;-60
2021/07/27 03:51:46;;;;;;;22.62;11.05;;;;;;;23.53;66.46;98805.47;1608413;87;21071;-61
2021/07/27 03:54:14;;;;;;;20.55;12.43;;;;;;;23.81;65.74;98805.59;1608221;87;21611;-63
2021/07/27 03:56:42;;;;;;;17.92;11.10;;;;;;;24.13;64.13;98790.47;1656707;84;21047;-60
2021/07/27 03:59:14;;;;;;;18.23;11.05;;;;;;;24.38;62.65;98794.06;1678938;83;21610;-60
2021/07/27 04:01:39;;;;;;;20.15;11.22;;;;;;;24.60;61.44;98794.67;1673320;83;21553;-60
2021/07/27 04:04:07;;;;;;;23.47;12.03;;;;;;;24.83;59.79;98795.02;1686978;84;21106;-59
2021/07/27 04:06:35;;;;;;;20.90;11.10;;;;;;;24.94;58.21;98802.30;1670767;83;21074;-59
2021/07/27 04:09:03;;;;;;;23.00;11.12;;;;;;;24.89;58.18;98800.55;1670708;83;21098;-61
2021/07/27 04:11:31;;;;;;;21.40;10.93;;;;;;;24.89;58.05;98802.44;1680929;83;21075;-59
2021/07/27 04:13:59;;;;;;;20.77;11.33;;;;;;;24.99;57.83;98802.20;1671498;83;21095;-61
2021/07/27 04:16:27;;;;;;;20.12;11.40;;;;;;;25.19;57.78;98818.52;1673420;84;21543;-61
2021/07/27 04:18:55;;;;;;;18.60;10.40;;;;;;;25.62;56.63;98816.12;1687633;83;21134;-60
2021/07/27 04:21:22;;;;;;;19.45;10.60;;;;;;;26.06;55.59;98813.72;1683439;83;21240;-61
2021/07/27 04:23:50;;;;;;;19.55;10.70;;;;;;;26.50;54.35;98807.42;1681397;83;21078;-60
2021/07/27 04:26:18;;;;;;;25.25;11.03;;;;;;;26.87;53.15;98803.34;1670736;83;21121;-61
2021/07/27 04:28:46;;;;;;;17.65;10.20;;;;;;;27.11;52.29;98803.48;1666216;83;21054;-61
2021/07/27 04:31:18;;;;;;;21.15;10.08;;;;;;;27.39;51.39;98802.59;1626515;86;21074;-59
2021/07/27 04:33:46;;;;;;;20.02;10.98;;;;;;;27.66;50.56;98806.31;1639179;85;21117;-62
2021/07/27 04:36:14;;;;;;;18.20;10.20;;;;;;;28.02;49.79;98796.44;1639765;86;21544;-62
2021/07/27 04:38:43;;;;;;;19.10;10.80;;;;;;;28.34;48.75;98800.27;1643452;86;21633;-60
2021/07/27 04:41:11;;;;;;;20.35;10.35;;;;;;;28.58;48.22;98798.53;1633080;86;21095;-60
2021/07/27 04:43:40;;;;;;;21.17;10.32;;;;;;;28.82;47.51;98797.10;1622304;86;21592;-51
2021/07/27 04:46:08;;;;;;;24.75;10.58;;;;;;;28.80;46.12;98802.86;1648645;85;21150;-53
2021/07/27 04:48:38;;;;;;;26.12;9.75;;;;;;;28.74;46.40;98815.59;1622992;85;21147;-53
2021/07/27 04:51:06;;;;;;;21.12;9.68;;;;;;;28.65;46.63;98818.91;1669771;84;21581;-51
2021/07/27 04:53:36;;;;;;;21.50;9.58;;;;;;;28.54;46.25;98810.35;1664311;84;21059;-51
2021/07/27 04:56:04;;;;;;;20.45;9.95;;;;;;;28.47;46.65;98818.20;1651939;84;21110;-50
2021/07/27 04:58:34;;;;;;;19.23;8.93;;;;;;;28.48;46.48;98819.23;1672327;84;21105;-53
2021/07/27 05:01:02;;;;;;;20.20;9.80;;;;;;;28.56;46.18;98809.48;1665077;85;21089;-54
2021/07/27 05:03:30;;;;;;;14.18;9.15;;;;;;;28.64;45.69;98808.62;1621481;85;21157;-55
2021/07/27 05:06:10;;;;;;;15.90;9.78;;;;;;;28.73;45.53;98801.78;1650573;85;21104;-51
2021/07/27 05:08:42;;;;;;;17.55;9.13;;;;;;;28.79;45.35;98807.27;1644576;84;21148;-51
2021/07/27 05:11:14;;;;;;;17.90;9.00;;;;;;;28.88;45.20;98808.55;1652071;85;21140;-50
2021/07/27 05:13:42;;;;;;;17.27;9.05;;;;;;;28.95;44.74;98805.57;1695993;83;21560;-57
2021/07/27 05:16:18;;;;;;;19.90;9.48;;;;;;;29.09;44.89;98814.26;1709459;83;21066;-53
2021/07/27 05:18:45;;;;;;;19.32;9.13;;;;;;;29.28;44.49;98804.28;1709594;83;20998;-47
2021/07/27 05:21:15;;;;;;;17.20;8.68;;;;;;;29.42;43.73;98808.62;1706628;83;21192;-45
2021/07/27 05:23:42;;;;;;;18.23;9.00;;;;;;;29.44;43.68;98808.53;1699139;83;21082;-51
2021/07/27 05:26:10;;;;;;;18.00;9.23;;;;;;;29.57;43.65;98814.27;1661775;85;21527;-49
2021/07/27 05:28:39;;;;;;;22.10;9.53;;;;;;;29.68;43.45;98813.28;1654875;85;21121;-52
2021/07/27 05:31:07;;;;;;;17.27;9.48;;;;;;;29.82;42.88;98817.87;1655892;85;21062;-53
2021/07/27 05:33:35;;;;;;;18.25;8.48;;;;;;;29.92;42.59;98817.19;1646153;85;21133;-46
2021/07/27 05:36:06;;;;;;;17.95;9.13;;;;;;;29.99;42.92;98814.70;1646357;85;21510;-53
2021/07/27 05:38:35;;;;;;;17.27;8.05;;;;;;;30.19;42.85;98803.56;1644791;85;21109;-54
2021/07/27 05:41:03;;;;;;;18.07;9.25;;;;;;;30.48;42.17;98804.70;1653969;85;21031;-51
2021/07/27 05:43:31;;;;;;;17.27;8.75;;;;;;;30.62;42.08;98802.98;1657483;85;21034;-55
2021/07/27 05:45:59;;;;;;;15.88;8.45;;;;;;;30.78;41.45;98796.31;1649481;86;21642;-52
2021/07/27 05:48:27;;;;;;;18.12;8.60;;;;;;;30.75;40.93;98798.37;1654789;85;21240;-57
2021/07/27 05:50:54;;;;;;;15.55;8.73;;;;;;;30.69;40.91;98792.94;1647013;85;21136;-47
2021/07/27 05:53:22;;;;;;;16.85;8.55;;;;;;;30.64;40.79;98785.77;1657071;85;21122;-54
2021/07/27 05:55:50;;;;;;;17.27;8.15;;;;;;;30.63;41.20;98788.27;1669373;85;21087;-47
2021/07/27 05:58:17;;;;;;;14.00;8.00;;;;;;;30.76;41.18;98791.79;1681069;84;21150;-50
2021/07/27 06:00:45;;;;;;;16.25;8.20;;;;;;;30.87;40.67;98793.69;1671765;84;21142;-57
2021/07/27 06:03:13;;;;;;;20.05;7.90;;;;;;;30.91;40.97;98787.80;1667804;84;21024;-56
2021/07/27 06:05:40;;;;;;;15.50;7.90;;;;;;;31.12;40.49;98787.60;1667223;85;21046;-59
2021/07/27 06:08:08;;;;;;;18.87;8.18;;;;;;;31.29;39.86;98788.48;1623823;86;21764;-55
2021/07/27 06:10:37;;;;;;;16.45;7.90;;;;;;;31.35;39.84;98796.05;1622698;86;21529;-56
2021/07/27 06:13:05;;;;;;;18.57;8.88;;;;;;;31.38;39.17;98795.38;1671645;84;21530;-54
2021/07/27 06:15:34;;;;;;;17.80;8.30;;;;;;;31.24;39.54;98794.93;1673795;83;21022;-57
2021/07/27 06:18:02;;;;;;;15.72;7.78;;;;;;;31.25;39.65;98788.94;1617619;86;21049;-61
2021/07/27 06:20:29;;;;;;;14.18;7.95;;;;;;;31.34;39.26;98789.60;1619993;85;21133;-57
2021/07/27 06:22:58;;;;;;;19.27;8.85;;;;;;;31.35;39.24;98791.18;1680262;82;21070;-55
2021/07/27 06:25:27;;;;;;;15.13;7.92;;;;;;;31.38;39.05;98789.14;1671968;83;21079;-52
2021/07/27 06:27:55;;;;;;;16.05;8.25;;;;;;;31.39;39.19;98789.36;1684064;83;21050;-54
2021/07/27 06:30:22;;;;;;;16.73;8.63;;;;;;;31.40;38.85;98786.28;1667809;84;21145;-52
2021/07/27 06:32:50;;;;;;;18.75;8.68;;;;;;;31.35;39.03;98782.44;1650175;84;21119;-52
2021/07/27 06:35:18;;;;;;;20.05;7.95;;;;;;;31.28;39.13;98780.89;1650303;84;21028;-50
2021/07/27 06:37:46;;;;;;;19.07;8.75;;;;;;;31.15;39.61;98774.67;1655276;84;21091;-50
2021/07/27 06:40:14;;;;;;;17.23;8.03;;;;;;;31.18;39.71;98771.81;1665717;84;21586;-56
2021/07/27 06:42:42;;;;;;;18.80;8.33;;;;;;;31.14;39.58;98771.73;1673911;84;21018;-53
2021/07/27 06:45:11;;;;;;;18.67;8.53;;;;;;;31.12;39.99;98768.55;1644808;84;21548;-54
2021/07/27 06:47:39;;;;;;;15.53;7.25;;;;;;;31.12;39.94;98773.20;1651483;85;21111;-54
2021/07/27 06:50:08;;;;;;;19.12;7.65;;;;;;;31.20;40.03;98761.39;1642112;84;21127;-53
2021/07/27 06:52:36;;;;;;;18.42;7.90;;;;;;;31.18;39.74;98769.09;1644638;85;21101;-54
2021/07/27 06:55:07;;;;;;;21.17;8.03;;;;;;;31.07;39.77;98769.36;1701401;83;21096;-52
2021/07/27 06:57:35;;;;;;;12.47;7.42;;;;;;;30.84;40.40;98760.35;1699851;83;21141;-54
2021/07/27 07:00:05;;;;;;;17.02;7.80;;;;;;;30.77;40.03;98760.72;1675209;84;21101;-51
2021/07/27 07:02:34;;;;;;;15.93;7.37;;;;;;;30.72;40.24;98750.86;1669473;85;21102;-56
2021/07/27 07:05:03;;;;;;;15.28;7.55;;;;;;;30.53;39.95;98750.66;1665698;84;21059;-51
2021/07/27 07:07:30;;;;;;;23.07;7.83;;;;;;;30.25;40.24;98759.50;1654060;85;20996;-54
2021/07/27 07:09:58;;;;;;;13.98;7.53;;;;;;;30.08;40.72;98765.13;1667826;83;21066;-54
2021/07/27 07:12:28;;;;;;;16.30;7.20;;;;;;;29.98;40.65;98765.57;1679151;83;21506;-50
2021/07/27 07:14:56;;;;;;;17.10;7.50;;;;;;;29.80;41.14;98764.98;1679866;83;21062;-53
2021/07/27 07:17:25;;;;;;;19.98;8.13;;;;;;;29.63;41.68;98764.61;1695050;82;21054;-52
2021/07/27 07:19:53;;;;;;;13.62;7.62;;;;;;;29.42;42.35;98768.72;1656070;84;21000;-53
2021/07/27 07:22:20;;;;;;;15.65;7.40;;;;;;;29.26;43.19;98773.97;1651583;84;21081;-52
2021/07/27 07:24:49;;;;;;;17.67;7.58;;;;;;;29.17;43.58;98781.37;1643728;84;21583;-55
2021/07/27 07:27:17;;;;;;;13.75;7.72;;;;;;;29.14;43.26;98775.28;1660116;84;21055;-52
2021/07/27 07:29:46;;;;;;;14.87;7.40;;;;;;;29.19;43.02;98775.61;1672832;84;21035;-55
2021/07/27 07:32:15;;;;;;;19.65;8.18;;;;;;;29.30;43.40;98772.16;1680841;83;21202;-54
2021/07/27 07:34:43;;;;;;;18.45;8.10;;;;;;;29.45;42.40;98782.18;1693796;84;21081;-51
2021/07/27 07:37:11;;;;;;;13.28;7.47;;;;;;;29.51;42.86;98784.91;1621221;86;21103;-52
2021/07/27 07:39:39;;;;;;;18.10;7.97;;;;;;;29.56;42.67;98784.73;1612766;87;21129;-52
2021/07/27 07:42:08;;;;;;;13.45;7.50;;;;;;;29.68;42.94;98792.13;1623569;86;21182;-56
2021/07/27 07:44:37;;;;;;;17.52;7.90;;;;;;;29.78;43.15;98805.28;1610869;87;21093;-51
2021/07/27 07:47:06;;;;;;;17.65;8.35;;;;;;;29.86;42.89;98801.10;1632150;85;21096;-55
2021/07/27 07:49:34;;;;;;;15.95;7.62;;;;;;;29.81;42.83;98795.09;1678753;82;21085;-52
2021/07/27 07:52:03;;;;;;;13.78;7.70;;;;;;;29.70;42.96;98802.87;1677701;84;21054;-56
2021/07/27 07:54:32;;;;;;;16.20;8.68;;;;;;;29.50;43.49;98801.77;1667886;84;21015;-55
2021/07/27 07:56:59;;;;;;;16.48;8.53;;;;;;;29.39;43.96;98811.45;1677140;84;21486;-53
2021/07/27 07:59:29;;;;;;;17.15;8.60;;;;;;;29.39;44.61;98812.02;1669756;84;21089;-55
2021/07/27 08:01:59;;;;;;;23.27;8.40;;;;;;;29.40;45.16;98804.10;1683538;83;21082;-50
2021/07/27 08:04:26;;;;;;;16.67;8.47;;;;;;;29.46;45.22;98804.91;1678720;84;21109;-55
2021/07/27 08:06:54;;;;;;;13.00;6.75;;;;;;;29.47;44.89;98807.86;1689772;82;21073;-58
2021/07/27 08:09:23;;;;;;;15.40;6.97;;;;;;;29.38;43.21;98804.44;1684911;83;21022;-54
2021/07/27 08:11:51;;;;;;;17.67;7.37;;;;;;;29.28;42.55;98806.20;1621071;85;21093;-54
2021/07/27 08:14:19;;;;;;;15.23;6.95;;;;;;;29.25;43.00;98809.03;1627714;85;21068;-49
2021/07/27 08:16:51;;;;;;;14.55;6.72;;;;;;;29.26;42.96;98806.54;1638757;85;21620;-56
2021/07/27 08:19:16;;;;;;;16.53;6.83;;;;;;;29.25;42.52;98808.23;1604946;85;21091;-55
2021/07/27 08:21:44;;;;;;;11.78;7.00;;;;;;;29.26;43.26;98801.11;1620138;85;21168;-54
2021/07/27 08:24:13;;;;;;;16.70;7.10;;;;;;;29.31;43.08;98803.63;1617491;85;21116;-54
2021/07/27 08:26:43;;;;;;;26.05;8.50;;;;;;;29.35;42.64;98805.09;1620965;86;21603;-56
2021/07/27 08:29:11;;;;;;;18.40;7.70;;;;;;;29.29;41.59;98806.43;1638694;85;21119;-55
2021/07/27 08:31:44;;;;;;;15.53;7.15;;;;;;;29.22;40.68;98812.96;1619290;85;21100;-58
2021/07/27 08:34:17;;;;;;;23.50;7.03;;;;;;;29.23;40.74;98812.63;1643566;84;21587;-56
2021/07/27 08:36:46;;;;;;;15.08;5.95;;;;;;;29.27;40.25;98809.48;1601014;85;21210;-55
2021/07/27 08:39:17;;;;;;;14.10;6.20;;;;;;;29.26;38.71;98813.89;1616371;85;23150;-52
2021/07/27 08:41:46;;;;;;;17.67;5.85;;;;;;;29.24;39.18;98822.34;1623852;85;21138;-52
2021/07/27 08:44:18;;;;;;;12.35;6.35;;;;;;;29.26;39.11;98818.76;1628912;85;21052;-49
2021/07/27 08:46:51;;;;;;;20.55;6.85;;;;;;;29.29;39.44;98811.86;1635747;85;22030;-51
2021/07/27 08:49:25;;;;;;;13.45;6.65;;;;;;;29.35;39.58;98808.60;1620780;85;21102;-51
2021/07/27 08:51:55;;;;;;;12.80;6.28;;;;;;;29.44;39.40;98815.33;1621141;85;21125;-52
2021/07/27 08:54:29;;;;;;;19.20;6.40;;;;;;;29.55;38.71;98802.16;1628179;85;21074;-56
2021/07/27 08:57:01;;;;;;;11.18;5.60;;;;;;;29.56;38.43;98807.82;1607938;85;21169;-57
2021/07/27 08:59:32;;;;;;;12.03;5.72;;;;;;;29.53;38.72;98809.27;1578039;87;21027;-54
2021/07/27 09:02:04;;;;;;;15.80;5.92;;;;;;;29.48;37.57;98807.32;1613136;86;21190;-54
2021/07/27 09:04:39;;;;;;;12.25;5.55;;;;;;;29.44;38.40;98809.89;1622434;85;21523;-56
2021/07/27 09:07:13;;;;;;;9.75;5.40;;;;;;;29.46;38.88;98809.55;1632664;85;21161;-55
2021/07/27 09:09:47;;;;;;;15.32;5.35;;;;;;;29.53;38.83;98815.27;1622317;86;21121;-54
2021/07/27 09:12:22;;;;;;;16.77;5.97;;;;;;;29.58;37.97;98819.13;1629843;87;21032;-49
2021/07/27 09:14:50;;;;;;;18.67;5.65;;;;;;;29.55;38.22;98820.61;1620076;87;21108;-53
2021/07/27 09:17:26;;;;;;;15.25;5.70;;;;;;;29.53;38.02;98815.27;1610007;88;21060;-51
2021/07/27 09:19:56;;;;;;;15.93;7.00;;;;;;;29.52;38.35;98822.61;1626181;87;21638;-52
2021/07/27 09:22:24;;;;;;;16.23;6.30;;;;;;;29.60;38.78;98819.61;1606556;86;21033;-52
2021/07/27 09:24:52;;;;;;;10.90;5.72;;;;;;;29.66;38.73;98824.27;1647864;85;21100;-52
2021/07/27 09:27:27;;;;;;;14.30;6.58;;;;;;;29.60;38.69;98823.11;1679487;82;21097;-55
2021/07/27 09:29:56;;;;;;;21.62;7.95;;;;;;;29.60;39.17;98816.33;1691224;82;21121;-56
2021/07/27 09:32:25;;;;;;;20.80;9.13;;;;;;;29.65;39.59;98824.84;1650761;84;21088;-53
2021/07/27 09:35:06;;;;;;;17.20;7.53;;;;;;;29.78;39.86;98826.45;1683420;83;21040;-51
2021/07/27 09:37:35;;;;;;;18.82;8.15;;;;;;;30.04;39.80;98811.20;1654762;84;21101;-53
2021/07/27 09:40:08;;;;;;;19.90;8.83;;;;;;;30.26;39.50;98809.23;1656453;83;21557;-51
2021/07/27 09:42:37;;;;;;;18.10;7.47;;;;;;;30.30;39.66;98800.62;1678298;82;21065;-53
2021/07/27 09:45:06;;;;;;;19.10;7.83;;;;;;;30.33;39.65;98798.58;1682776;83;20978;-55
2021/07/27 09:47:34;;;;;;;13.23;7.50;;;;;;;30.25;40.49;98798.13;1672716;83;22392;-55
2021/07/27 09:50:06;;;;;;;21.52;7.60;;;;;;;30.28;41.04;98797.44;1686141;83;21169;-52
2021/07/27 09:52:34;;;;;;;18.02;7.85;;;;;;;30.36;40.73;98790.55;1674590;82;21082;-54
2021/07/27 09:55:03;;;;;;;16.02;7.47;;;;;;;30.37;41.06;98787.25;1684033;84;21026;-51
2021/07/27 09:57:31;;;;;;;15.90;8.23;;;;;;;30.33;41.53;98789.06;1669700;82;21057;-57
2021/07/27 10:00:00;;;;;;;16.40;7.70;;;;;;;30.24;41.20;98778.88;1686061;83;21053;-58
2021/07/27 10:02:28;;;;;;;15.15;7.62;;;;;;;30.10;42.12;98778.59;1647241;84;21078;-54
2021/07/27 10:04:56;;;;;;;16.32;7.80;;;;;;;30.02;42.62;98780.87;1675143;83;20988;-58
2021/07/27 10:07:31;;;;;;;17.85;7.08;;;;;;;29.88;42.62;98777.69;1691200;83;21499;-58
2021/07/27 10:10:11;;;;;;;18.30;7.53;;;;;;;29.71;43.03;98784.11;1681952;83;21054;-55
2021/07/27 10:12:39;;;;;;;15.15;7.50;;;;;;;29.56;43.65;98769.23;1660664;83;21530;-56
2021/07/27 10:15:15;;;;;;;18.98;8.35;;;;;;;29.45;44.18;98765.89;1673091;83;21057;-57
2021/07/27 10:17:53;;;;;;;13.60;7.72;;;;;;;29.25;44.55;98767.52;1643547;85;21050;-58
2021/07/27 10:20:26;;;;;;;16.90;8.05;;;;;;;29.10;45.05;98767.00;1645601;84;21189;-55
2021/07/27 10:22:58;;;;;;;18.00;7.25;;;;;;;29.03;45.30;98765.95;1645995;85;21066;-56
2021/07/27 10:25:26;;;;;;;16.48;7.60;;;;;;;29.03;45.44;98770.81;1631198;85;21648;-55
2021/07/27 10:27:54;;;;;;;14.13;7.45;;;;;;;29.09;45.71;98774.12;1632958;85;21115;-59
2021/07/27 10:30:38;;;;;;;17.23;8.13;;;;;;;29.12;45.95;98768.58;1640689;85;21051;-58
2021/07/27 10:33:10;;;;;;;15.90;7.72;;;;;;;29.24;45.86;98772.13;1628348;85;21053;-59
2021/07/27 10:35:47;;;;;;;17.60;7.08;;;;;;;29.48;45.61;98772.02;1627308;85;21086;-59
2021/07/27 10:38:22;;;;;;;21.27;7.67;;;;;;;29.67;45.41;98763.38;1608428;85;21071;-58
2021/07/27 10:40:55;;;;;;;19.40;7.70;;;;;;;29.81;45.68;98768.71;1624562;85;21058;-64
2021/07/27 10:43:26;;;;;;;17.40;7.62;;;;;;;29.98;45.21;98762.86;1631080;85;21110;-55
2021/07/27 10:46:00;;;;;;;15.00;7.00;;;;;;;30.05;45.44;98753.56;1623391;85;21132;-53
2021/07/27 10:48:41;;;;;;;13.78;7.25;;;;;;;30.12;44.83;98746.48;1625472;85;21601;-59
2021/07/27 10:51:11;;;;;;;13.65;7.15;;;;;;;30.27;44.60;98749.07;1623924;85;21117;-62
2021/07/27 10:53:41;;;;;;;14.10;7.67;;;;;;;30.47;44.62;98742.50;1617365;85;21085;-59
2021/07/27 10:56:12;;;;;;;17.45;6.80;;;;;;;30.71;44.59;98737.61;1609711;85;21105;-58
2021/07/27 10:58:52;;;;;;;12.98;6.30;;;;;;;30.89;43.91;98748.44;1632737;85;21227;-58
2021/07/27 11:01:23;;;;;;;14.70;7.37;;;;;;;30.96;44.16;98746.48;1636193;85;21115;-56
2021/07/27 11:03:52;;;;;;;15.83;7.28;;;;;;;30.99;44.03;98741.16;1604532;85;21090;-56
2021/07/27 11:06:20;;;;;;;16.75;6.83;;;;;;;30.92;43.41;98739.03;1655669;85;21556;-61
2021/07/27 11:08:48;;;;;;;16.02;7.47;;;;;;;30.83;43.86;98737.58;1652397;85;21051;-55
2021/07/27 11:11:19;;;;;;;13.22;7.08;;;;;;;30.79;44.29;98742.91;1598576;85;21101;-59
2021/07/27 11:13:54;;;;;;;15.70;6.67;;;;;;;30.84;44.25;98744.59;1634151;85;21056;-56
2021/07/27 11:16:25;;;;;;;16.45;7.45;;;;;;;30.95;44.42;98749.78;1605402;86;21054;-61
2021/07/27 11:18:55;;;;;;;14.87;7.08;;;;;;;31.05;43.74;98745.78;1635502;85;21082;-62
2021/07/27 11:21:25;;;;;;;12.13;7.15;;;;;;;31.05;43.13;98743.06;1600570;87;21122;-57
2021/07/27 11:23:54;;;;;;;18.27;8.43;;;;;;;31.03;42.95;98750.22;1648684;82;21584;-65
2021/07/27 11:26:26;;;;;;;17.52;7.37;;;;;;;31.00;43.36;98733.20;1677895;82;21042;-62
2021/07/27 11:28:57;;;;;;;19.35;7.35;;;;;;;30.98;43.81;98738.22;1677860;82;21058;-63
2021/07/27 11:31:26;;;;;;;16.10;7.45;;;;;;;30.98;44.18;98730.05;1675068;82;21189;-57
2021/07/27 11:33:55;;;;;;;16.55;7.62;;;;;;;30.91;44.37;98727.92;1559003;88;21149;-55
2021/07/27 11:36:24;;;;;;;;;;;;;;;30.92;44.79;98721.34;1641245;86;21058;-64
2021/07/27 11:39:06;;;;;;;13.32;7.42;;;;;;;30.91;44.91;98720.30;1653674;84;20544;-64
2021/07/27 11:41:35;;;;;;;14.33;7.83;;;;;;;30.86;44.90;98716.49;1669836;85;21102;-65
2021/07/27 11:44:07;;;;;;;14.03;7.22;;;;;;;30.80;44.64;98717.30;1682300;84;21572;-59
2021/07/27 11:46:44;;;;;;;12.85;7.00;;;;;;;30.75;44.62;98722.19;1636493;85;21106;-56
2021/07/27 11:49:13;;;;;;;14.28;7.30;;;;;;;30.65;44.74;98722.85;1615609;85;21099;-57